sensor_id;sensor_type;location;lat;lon;timestamp;pressure;altitude;pressure_sealevel;temperature;humidity
39487;BME280;25173;50.430;18.926;2022-09-30T00:01:32;97483.22;;;10.62;66.44
39487;BME280;25173;50.430;18.926;2022-09-30T00:04:33;97489.72;;;10.66;66.28
39487;BME280;25173;50.430;18.926;2022-09-30T00:07:33;97496.66;;;10.77;66.07
39487;BME280;25173;50.430;18.926;2022-09-30T00:10:34;97490.56;;;10.85;66.04
39487;BME280;25173;50.430;18.926;2022-09-30T00:13:37;97493.81;;;10.87;66.27
39487;BME280;25173;50.430;18.926;2022-09-30T00:16:38;97488.06;;;10.88;66.24
39487;BME280;25173;50.430;18.926;2022-09-30T00:19:38;97480.63;;;10.94;66.04
39487;BME280;25173;50.430;18.926;2022-09-30T00:22:39;97477.56;;;11.01;65.72
39487;BME280;25173;50.430;18.926;2022-09-30T00:25:39;97471.72;;;11.07;65.50
39487;BME280;25173;50.430;18.926;2022-09-30T00:28:41;97474.97;;;11.09;65.17
39487;BME280;25173;50.430;18.926;2022-09-30T00:31:42;97489.72;;;11.08;65.24
39487;BME280;25173;50.430;18.926;2022-09-30T00:34:42;97491.03;;;11.11;65.63
39487;BME280;25173;50.430;18.926;2022-09-30T00:37:43;97487.72;;;11.14;65.72
39487;BME280;25173;50.430;18.926;2022-09-30T00:40:44;97495.59;;;11.15;65.73
39487;BME280;25173;50.430;18.926;2022-09-30T00:43:46;97504.44;;;11.07;65.94
39487;BME280;25173;50.430;18.926;2022-09-30T00:46:56;97514.34;;;10.98;66.23
39487;BME280;25173;50.430;18.926;2022-09-30T00:50:02;97512.00;;;10.92;66.46
39487;BME280;25173;50.430;18.926;2022-09-30T00:56:12;97505.28;;;10.84;66.93
39487;BME280;25173;50.430;18.926;2022-09-30T00:59:16;97504.56;;;10.97;67.12
39487;BME280;25173;50.430;18.926;2022-09-30T01:02:18;97503.53;;;11.12;67.06
39487;BME280;25173;50.430;18.926;2022-09-30T01:05:19;97501.13;;;11.29;67.00
39487;BME280;25173;50.430;18.926;2022-09-30T01:08:20;97510.47;;;11.42;66.82
39487;BME280;25173;50.430;18.926;2022-09-30T01:11:23;97507.03;;;11.55;66.79
39487;BME280;25173;50.430;18.926;2022-09-30T01:14:25;97511.06;;;11.57;66.59
39487;BME280;25173;50.430;18.926;2022-09-30T01:17:40;97522.09;;;11.66;67.00
39487;BME280;25173;50.430;18.926;2022-09-30T01:21:12;97512.25;;;11.70;66.61
39487;BME280;25173;50.430;18.926;2022-09-30T01:28:12;97508.50;;;11.85;66.71
39487;BME280;25173;50.430;18.926;2022-09-30T01:35:04;97516.44;;;12.14;66.62
39487;BME280;25173;50.430;18.926;2022-09-30T01:44:34;97514.16;;;12.34;65.84
39487;BME280;25173;50.430;18.926;2022-09-30T01:48:08;97512.75;;;12.37;65.92
39487;BME280;25173;50.430;18.926;2022-09-30T01:51:27;97528.00;;;12.38;66.05
39487;BME280;25173;50.430;18.926;2022-09-30T01:54:52;97522.47;;;12.43;66.22
39487;BME280;25173;50.430;18.926;2022-09-30T01:57:56;97527.53;;;12.50;66.26
39487;BME280;25173;50.430;18.926;2022-09-30T02:01:01;97528.25;;;12.55;66.02
39487;BME280;25173;50.430;18.926;2022-09-30T02:04:16;97529.44;;;12.49;65.83
39487;BME280;25173;50.430;18.926;2022-09-30T02:07:24;97533.97;;;12.40;66.03
39487;BME280;25173;50.430;18.926;2022-09-30T02:10:33;97533.47;;;12.38;66.15
39487;BME280;25173;50.430;18.926;2022-09-30T02:13:41;97526.41;;;12.37;66.24
39487;BME280;25173;50.430;18.926;2022-09-30T02:16:48;97528.00;;;12.38;66.10
39487;BME280;25173;50.430;18.926;2022-09-30T02:20:10;97528.22;;;12.41;66.29
39487;BME280;25173;50.430;18.926;2022-09-30T02:23:18;97529.22;;;12.45;66.20
39487;BME280;25173;50.430;18.926;2022-09-30T02:26:23;97526.19;;;12.47;66.27
39487;BME280;25173;50.430;18.926;2022-09-30T02:29:30;97522.38;;;12.48;66.32
39487;BME280;25173;50.430;18.926;2022-09-30T02:32:37;97526.72;;;12.49;66.43
39487;BME280;25173;50.430;18.926;2022-09-30T02:35:46;97524.69;;;12.55;66.46
39487;BME280;25173;50.430;18.926;2022-09-30T02:39:04;97525.41;;;12.60;66.53
39487;BME280;25173;50.430;18.926;2022-09-30T02:42:11;97522.06;;;12.63;66.56
39487;BME280;25173;50.430;18.926;2022-09-30T02:45:21;97518.63;;;12.71;66.48
39487;BME280;25173;50.430;18.926;2022-09-30T02:48:41;97527.25;;;12.78;66.28
39487;BME280;25173;50.430;18.926;2022-09-30T02:51:52;97528.25;;;12.82;66.16
39487;BME280;25173;50.430;18.926;2022-09-30T02:55:12;97538.56;;;12.86;66.00
39487;BME280;25173;50.430;18.926;2022-09-30T02:58:17;97532.00;;;12.87;66.12
39487;BME280;25173;50.430;18.926;2022-09-30T03:01:20;97539.91;;;12.88;66.12
39487;BME280;25173;50.430;18.926;2022-09-30T03:04:24;97540.31;;;12.95;66.19
39487;BME280;25173;50.430;18.926;2022-09-30T03:07:26;97533.09;;;12.99;66.10
39487;BME280;25173;50.430;18.926;2022-09-30T03:10:28;97529.47;;;13.04;66.18
39487;BME280;25173;50.430;18.926;2022-09-30T03:21:00;97545.47;;;13.24;65.80
39487;BME280;25173;50.430;18.926;2022-09-30T03:26:53;97550.69;;;13.34;65.59
39487;BME280;25173;50.430;18.926;2022-09-30T03:30:10;97561.16;;;13.32;65.53
39487;BME280;25173;50.430;18.926;2022-09-30T03:33:22;97548.75;;;13.35;65.73
39487;BME280;25173;50.430;18.926;2022-09-30T03:36:38;97555.56;;;13.37;65.61
39487;BME280;25173;50.430;18.926;2022-09-30T03:39:51;97547.88;;;13.39;65.67
39487;BME280;25173;50.430;18.926;2022-09-30T03:42:59;97554.31;;;13.43;65.43
39487;BME280;25173;50.430;18.926;2022-09-30T03:49:14;97561.41;;;13.44;65.51
39487;BME280;25173;50.430;18.926;2022-09-30T03:52:18;97563.97;;;13.41;65.52
39487;BME280;25173;50.430;18.926;2022-09-30T03:55:19;97572.19;;;13.41;65.81
39487;BME280;25173;50.430;18.926;2022-09-30T03:58:22;97572.38;;;13.44;65.85
39487;BME280;25173;50.430;18.926;2022-09-30T04:01:23;97571.75;;;13.47;65.82
39487;BME280;25173;50.430;18.926;2022-09-30T04:04:24;97567.28;;;13.51;65.83
39487;BME280;25173;50.430;18.926;2022-09-30T04:07:25;97557.34;;;13.55;65.87
39487;BME280;25173;50.430;18.926;2022-09-30T04:10:25;97556.72;;;13.58;65.75
39487;BME280;25173;50.430;18.926;2022-09-30T04:13:26;97559.97;;;13.60;65.85
39487;BME280;25173;50.430;18.926;2022-09-30T04:16:30;97564.81;;;13.64;65.92
39487;BME280;25173;50.430;18.926;2022-09-30T04:19:31;97558.44;;;13.68;65.61
39487;BME280;25173;50.430;18.926;2022-09-30T04:22:37;97563.22;;;13.63;65.35
39487;BME280;25173;50.430;18.926;2022-09-30T04:25:37;97558.94;;;13.56;65.72
39487;BME280;25173;50.430;18.926;2022-09-30T04:28:38;97563.31;;;13.57;65.88
39487;BME280;25173;50.430;18.926;2022-09-30T04:31:39;97557.34;;;13.55;66.02
39487;BME280;25173;50.430;18.926;2022-09-30T04:34:39;97556.41;;;13.60;66.30
39487;BME280;25173;50.430;18.926;2022-09-30T04:37:44;97555.47;;;13.65;66.10
39487;BME280;25173;50.430;18.926;2022-09-30T04:40:45;97563.22;;;13.63;65.95
39487;BME280;25173;50.430;18.926;2022-09-30T04:43:46;97560.56;;;13.57;65.95
39487;BME280;25173;50.430;18.926;2022-09-30T04:46:47;97567.50;;;13.55;66.05
39487;BME280;25173;50.430;18.926;2022-09-30T04:49:48;97581.03;;;13.60;66.39
39487;BME280;25173;50.430;18.926;2022-09-30T04:52:48;97574.63;;;13.65;66.33
39487;BME280;25173;50.430;18.926;2022-09-30T04:55:49;97576.94;;;13.71;66.40
39487;BME280;25173;50.430;18.926;2022-09-30T04:58:51;97578.94;;;13.79;66.36
39487;BME280;25173;50.430;18.926;2022-09-30T05:01:52;97578.41;;;13.91;66.43
39487;BME280;25173;50.430;18.926;2022-09-30T05:04:52;97589.25;;;13.96;66.46
39487;BME280;25173;50.430;18.926;2022-09-30T05:08:04;97583.47;;;13.97;66.05
39487;BME280;25173;50.430;18.926;2022-09-30T05:11:06;97580.44;;;13.99;66.29
39487;BME280;25173;50.430;18.926;2022-09-30T05:14:08;97582.53;;;14.02;66.37
39487;BME280;25173;50.430;18.926;2022-09-30T05:17:09;97585.78;;;14.04;66.59
39487;BME280;25173;50.430;18.926;2022-09-30T05:20:10;97591.13;;;14.09;66.43
39487;BME280;25173;50.430;18.926;2022-09-30T05:23:10;97593.25;;;14.12;66.51
39487;BME280;25173;50.430;18.926;2022-09-30T05:26:11;97593.09;;;14.17;66.44
39487;BME280;25173;50.430;18.926;2022-09-30T05:29:12;97605.56;;;14.23;66.65
39487;BME280;25173;50.430;18.926;2022-09-30T05:32:13;97607.06;;;14.29;66.68
39487;BME280;25173;50.430;18.926;2022-09-30T05:35:13;97605.22;;;14.38;66.69
39487;BME280;25173;50.430;18.926;2022-09-30T05:38:14;97608.31;;;14.46;66.66
39487;BME280;25173;50.430;18.926;2022-09-30T05:41:14;97606.28;;;14.51;66.41
39487;BME280;25173;50.430;18.926;2022-09-30T05:44:15;97600.81;;;14.60;66.38
39487;BME280;25173;50.430;18.926;2022-09-30T05:47:16;97599.25;;;14.67;66.29
39487;BME280;25173;50.430;18.926;2022-09-30T05:50:16;97601.06;;;14.72;66.21
39487;BME280;25173;50.430;18.926;2022-09-30T05:53:17;97599.66;;;14.74;66.22
39487;BME280;25173;50.430;18.926;2022-09-30T05:56:18;97601.56;;;14.74;65.98
39487;BME280;25173;50.430;18.926;2022-09-30T05:59:18;97597.53;;;14.71;66.21
39487;BME280;25173;50.430;18.926;2022-09-30T06:02:19;97601.56;;;14.74;66.28
39487;BME280;25173;50.430;18.926;2022-09-30T06:05:19;97597.06;;;14.78;66.38
39487;BME280;25173;50.430;18.926;2022-09-30T06:08:21;97600.78;;;14.82;66.31
39487;BME280;25173;50.430;18.926;2022-09-30T06:11:23;97599.19;;;14.90;66.19
39487;BME280;25173;50.430;18.926;2022-09-30T06:14:24;97603.75;;;14.94;66.03
39487;BME280;25173;50.430;18.926;2022-09-30T06:17:25;97607.97;;;15.00;65.94
39487;BME280;25173;50.430;18.926;2022-09-30T06:20:25;97617.81;;;15.01;66.01
39487;BME280;25173;50.430;18.926;2022-09-30T06:23:27;97613.00;;;15.07;66.01
39487;BME280;25173;50.430;18.926;2022-09-30T06:26:28;97618.69;;;15.10;65.93
39487;BME280;25173;50.430;18.926;2022-09-30T06:29:28;97629.50;;;15.15;65.95
39487;BME280;25173;50.430;18.926;2022-09-30T06:32:29;97631.63;;;15.19;65.70
39487;BME280;25173;50.430;18.926;2022-09-30T06:35:29;97640.97;;;15.18;65.99
39487;BME280;25173;50.430;18.926;2022-09-30T06:38:31;97639.50;;;15.20;65.71
39487;BME280;25173;50.430;18.926;2022-09-30T06:41:32;97644.69;;;15.22;65.85
39487;BME280;25173;50.430;18.926;2022-09-30T06:44:33;97655.34;;;15.23;65.84
39487;BME280;25173;50.430;18.926;2022-09-30T06:47:33;97652.75;;;15.27;65.65
39487;BME280;25173;50.430;18.926;2022-09-30T06:50:35;97647.78;;;15.29;65.83
39487;BME280;25173;50.430;18.926;2022-09-30T06:53:36;97655.06;;;15.33;65.99
39487;BME280;25173;50.430;18.926;2022-09-30T06:56:39;97655.41;;;15.40;65.98
39487;BME280;25173;50.430;18.926;2022-09-30T06:59:40;97655.13;;;15.50;66.00
39487;BME280;25173;50.430;18.926;2022-09-30T07:02:40;97657.91;;;15.59;65.79
39487;BME280;25173;50.430;18.926;2022-09-30T07:05:41;97654.38;;;15.67;65.91
39487;BME280;25173;50.430;18.926;2022-09-30T07:08:41;97649.72;;;15.76;65.83
39487;BME280;25173;50.430;18.926;2022-09-30T07:11:42;97657.50;;;15.83;65.69
39487;BME280;25173;50.430;18.926;2022-09-30T07:14:44;97657.81;;;15.90;65.63
39487;BME280;25173;50.430;18.926;2022-09-30T07:17:50;97648.78;;;15.98;65.37
39487;BME280;25173;50.430;18.926;2022-09-30T07:20:52;97653.31;;;16.03;65.44
39487;BME280;25173;50.430;18.926;2022-09-30T07:23:53;97664.50;;;16.15;65.54
39487;BME280;25173;50.430;18.926;2022-09-30T07:26:56;97669.81;;;16.20;65.29
39487;BME280;25173;50.430;18.926;2022-09-30T07:29:56;97667.41;;;16.27;65.23
39487;BME280;25173;50.430;18.926;2022-09-30T07:32:58;97664.66;;;16.36;65.25
39487;BME280;25173;50.430;18.926;2022-09-30T07:36:00;97663.50;;;16.45;64.96
39487;BME280;25173;50.430;18.926;2022-09-30T07:39:02;97662.22;;;16.51;64.77
39487;BME280;25173;50.430;18.926;2022-09-30T07:42:04;97665.91;;;16.55;64.78
39487;BME280;25173;50.430;18.926;2022-09-30T07:45:05;97657.53;;;16.60;64.47
39487;BME280;25173;50.430;18.926;2022-09-30T07:48:06;97664.81;;;16.65;64.66
39487;BME280;25173;50.430;18.926;2022-09-30T07:51:33;97669.00;;;16.71;64.56
39487;BME280;25173;50.430;18.926;2022-09-30T07:54:33;97674.19;;;16.73;64.41
39487;BME280;25173;50.430;18.926;2022-09-30T07:57:34;97679.84;;;16.76;64.33
39487;BME280;25173;50.430;18.926;2022-09-30T08:00:35;97681.28;;;16.82;64.31
39487;BME280;25173;50.430;18.926;2022-09-30T08:03:38;97684.69;;;16.88;64.29
39487;BME280;25173;50.430;18.926;2022-09-30T08:06:42;97684.38;;;16.89;64.35
39487;BME280;25173;50.430;18.926;2022-09-30T08:09:43;97687.44;;;16.88;64.16
39487;BME280;25173;50.430;18.926;2022-09-30T08:12:43;97691.16;;;16.83;64.37
39487;BME280;25173;50.430;18.926;2022-09-30T08:15:44;97692.44;;;16.86;64.40
39487;BME280;25173;50.430;18.926;2022-09-30T08:18:44;97688.38;;;16.92;64.32
39487;BME280;25173;50.430;18.926;2022-09-30T08:21:45;97690.31;;;17.00;64.18
39487;BME280;25173;50.430;18.926;2022-09-30T08:24:47;97692.75;;;17.01;64.17
39487;BME280;25173;50.430;18.926;2022-09-30T08:27:48;97699.34;;;17.09;63.88
39487;BME280;25173;50.430;18.926;2022-09-30T08:30:48;97705.19;;;17.07;63.62
39487;BME280;25173;50.430;18.926;2022-09-30T08:33:49;97711.81;;;17.06;64.26
39487;BME280;25173;50.430;18.926;2022-09-30T08:36:50;97702.44;;;17.07;64.15
39487;BME280;25173;50.430;18.926;2022-09-30T08:39:50;97705.38;;;17.02;63.91
39487;BME280;25173;50.430;18.926;2022-09-30T08:43:20;97703.75;;;17.01;64.08
39487;BME280;25173;50.430;18.926;2022-09-30T08:46:45;97701.31;;;17.08;64.33
39487;BME280;25173;50.430;18.926;2022-09-30T08:50:01;97707.28;;;17.11;64.02
39487;BME280;25173;50.430;18.926;2022-09-30T08:53:08;97702.75;;;17.06;64.00
39487;BME280;25173;50.430;18.926;2022-09-30T08:56:19;97707.13;;;17.07;64.34
39487;BME280;25173;50.430;18.926;2022-09-30T09:02:52;97709.53;;;17.17;63.78
39487;BME280;25173;50.430;18.926;2022-09-30T09:09:14;97720.34;;;17.22;63.61
39487;BME280;25173;50.430;18.926;2022-09-30T09:16:26;97722.31;;;17.13;63.76
39487;BME280;25173;50.430;18.926;2022-09-30T09:19:24;97716.19;;;17.07;63.85
39487;BME280;25173;50.430;18.926;2022-09-30T09:22:25;97720.41;;;17.05;64.18
39487;BME280;25173;50.430;18.926;2022-09-30T09:25:28;97718.94;;;17.07;64.19
39487;BME280;25173;50.430;18.926;2022-09-30T09:31:38;97722.50;;;17.08;63.90
39487;BME280;25173;50.430;18.926;2022-09-30T09:34:39;97723.94;;;17.14;63.85
39487;BME280;25173;50.430;18.926;2022-09-30T09:44:59;97733.28;;;17.30;63.45
39487;BME280;25173;50.430;18.926;2022-09-30T09:48:07;97731.03;;;17.32;63.34
39487;BME280;25173;50.430;18.926;2022-09-30T09:51:23;97729.84;;;17.42;63.45
39487;BME280;25173;50.430;18.926;2022-09-30T09:54:28;97728.56;;;17.48;63.32
39487;BME280;25173;50.430;18.926;2022-09-30T09:57:29;97739.91;;;17.38;62.81
39487;BME280;25173;50.430;18.926;2022-09-30T10:00:33;97732.47;;;17.30;63.37
39487;BME280;25173;50.430;18.926;2022-09-30T10:03:42;97741.25;;;17.23;63.36
39487;BME280;25173;50.430;18.926;2022-09-30T10:07:12;97728.81;;;17.17;63.04
39487;BME280;25173;50.430;18.926;2022-09-30T10:10:18;97733.31;;;17.13;63.48
39487;BME280;25173;50.430;18.926;2022-09-30T10:16:30;97741.13;;;17.11;63.41
39487;BME280;25173;50.430;18.926;2022-09-30T10:19:33;97743.06;;;17.11;63.76
39487;BME280;25173;50.430;18.926;2022-09-30T10:22:35;97745.31;;;17.17;63.69
39487;BME280;25173;50.430;18.926;2022-09-30T10:25:36;97742.88;;;17.24;63.77
39487;BME280;25173;50.430;18.926;2022-09-30T10:28:51;97751.91;;;17.33;63.38
39487;BME280;25173;50.430;18.926;2022-09-30T10:31:52;97751.56;;;17.35;63.24
39487;BME280;25173;50.430;18.926;2022-09-30T10:35:03;97749.31;;;17.37;63.42
39487;BME280;25173;50.430;18.926;2022-09-30T10:38:04;97751.25;;;17.36;63.69
39487;BME280;25173;50.430;18.926;2022-09-30T10:41:06;97762.41;;;17.40;63.45
39487;BME280;25173;50.430;18.926;2022-09-30T10:44:15;97763.53;;;17.48;63.35
39487;BME280;25173;50.430;18.926;2022-09-30T10:47:20;97765.16;;;17.49;63.23
39487;BME280;25173;50.430;18.926;2022-09-30T10:50:23;97766.97;;;17.27;62.92
39487;BME280;25173;50.430;18.926;2022-09-30T10:53:27;97764.41;;;17.05;63.51
39487;BME280;25173;50.430;18.926;2022-09-30T10:56:40;97774.78;;;16.91;63.45
39487;BME280;25173;50.430;18.926;2022-09-30T10:59:42;97770.44;;;16.64;63.75
39487;BME280;25173;50.430;18.926;2022-09-30T11:05:49;97777.25;;;16.66;64.17
39487;BME280;25173;50.430;18.926;2022-09-30T11:11:56;97771.09;;;16.87;64.48
39487;BME280;25173;50.430;18.926;2022-09-30T11:18:07;97779.34;;;17.04;64.07
39487;BME280;25173;50.430;18.926;2022-09-30T11:21:39;97783.53;;;17.10;63.90
39487;BME280;25173;50.430;18.926;2022-09-30T11:24:44;97781.59;;;17.02;63.75
39487;BME280;25173;50.430;18.926;2022-09-30T11:34:16;97789.22;;;16.88;63.02
39487;BME280;25173;50.430;18.926;2022-09-30T11:47:18;97795.50;;;16.62;64.78
39487;BME280;25173;50.430;18.926;2022-09-30T11:50:37;97797.13;;;16.81;64.49
39487;BME280;25173;50.430;18.926;2022-09-30T12:00:12;97804.25;;;16.90;63.82
39487;BME280;25173;50.430;18.926;2022-09-30T12:03:26;97809.91;;;16.85;64.29
39487;BME280;25173;50.430;18.926;2022-09-30T12:06:33;97802.97;;;16.88;64.33
39487;BME280;25173;50.430;18.926;2022-09-30T12:09:45;97809.75;;;16.99;64.47
39487;BME280;25173;50.430;18.926;2022-09-30T12:12:52;97806.66;;;17.00;64.13
39487;BME280;25173;50.430;18.926;2022-09-30T12:15:56;97802.63;;;16.98;64.12
39487;BME280;25173;50.430;18.926;2022-09-30T12:19:14;97815.56;;;17.06;64.35
39487;BME280;25173;50.430;18.926;2022-09-30T12:22:31;97810.56;;;16.99;64.19
39487;BME280;25173;50.430;18.926;2022-09-30T12:25:58;97806.34;;;16.93;63.46
39487;BME280;25173;50.430;18.926;2022-09-30T12:29:05;97805.38;;;16.81;64.15
39487;BME280;25173;50.430;18.926;2022-09-30T12:36:13;97819.28;;;16.67;64.65
39487;BME280;25173;50.430;18.926;2022-09-30T12:42:35;97832.91;;;16.81;64.70
39487;BME280;25173;50.430;18.926;2022-09-30T12:46:03;97838.53;;;16.84;64.23
39487;BME280;25173;50.430;18.926;2022-09-30T12:49:11;97842.78;;;16.82;64.44
39487;BME280;25173;50.430;18.926;2022-09-30T12:52:18;97845.03;;;16.80;64.80
39487;BME280;25173;50.430;18.926;2022-09-30T12:55:30;97850.31;;;16.59;63.66
39487;BME280;25173;50.430;18.926;2022-09-30T12:58:41;97853.47;;;16.35;64.54
39487;BME280;25173;50.430;18.926;2022-09-30T13:01:44;97856.81;;;16.23;64.77
39487;BME280;25173;50.430;18.926;2022-09-30T13:04:45;97856.31;;;16.13;65.10
39487;BME280;25173;50.430;18.926;2022-09-30T13:11:05;97868.69;;;16.02;65.37
39487;BME280;25173;50.430;18.926;2022-09-30T13:17:32;97871.19;;;15.81;65.62
39487;BME280;25173;50.430;18.926;2022-09-30T13:24:06;97867.25;;;15.73;66.29
39487;BME280;25173;50.430;18.926;2022-09-30T13:27:12;97859.28;;;15.85;65.89
39487;BME280;25173;50.430;18.926;2022-09-30T13:33:30;97869.47;;;15.93;66.07
39487;BME280;25173;50.430;18.926;2022-09-30T13:36:56;97865.69;;;16.12;66.23
39487;BME280;25173;50.430;18.926;2022-09-30T13:39:58;97870.75;;;16.27;65.84
39487;BME280;25173;50.430;18.926;2022-09-30T13:43:00;97870.00;;;16.44;65.86
39487;BME280;25173;50.430;18.926;2022-09-30T13:49:32;97880.56;;;16.67;64.92
39487;BME280;25173;50.430;18.926;2022-09-30T13:52:35;97882.34;;;16.63;64.79
39487;BME280;25173;50.430;18.926;2022-09-30T13:55:42;97880.41;;;16.64;64.79
39487;BME280;25173;50.430;18.926;2022-09-30T13:59:05;97877.69;;;16.73;64.95
39487;BME280;25173;50.430;18.926;2022-09-30T14:02:15;97885.63;;;16.83;64.73
39487;BME280;25173;50.430;18.926;2022-09-30T14:08:43;97872.69;;;17.00;64.69
39487;BME280;25173;50.430;18.926;2022-09-30T14:15:39;97856.69;;;17.11;63.63
39487;BME280;25173;50.430;18.926;2022-09-30T14:22:14;97869.63;;;17.02;64.03
39487;BME280;25173;50.430;18.926;2022-09-30T14:25:17;97863.00;;;17.03;64.31
39487;BME280;25173;50.430;18.926;2022-09-30T14:28:28;97869.16;;;17.08;64.18
39487;BME280;25173;50.430;18.926;2022-09-30T14:31:32;97859.28;;;17.07;64.28
39487;BME280;25173;50.430;18.926;2022-09-30T14:34:33;97852.31;;;17.19;64.28
39487;BME280;25173;50.430;18.926;2022-09-30T14:37:56;97851.00;;;17.33;63.86
39487;BME280;25173;50.430;18.926;2022-09-30T14:41:05;97851.47;;;17.44;63.75
39487;BME280;25173;50.430;18.926;2022-09-30T14:44:11;97853.56;;;17.56;63.87
39487;BME280;25173;50.430;18.926;2022-09-30T14:47:16;97861.66;;;17.61;63.51
39487;BME280;25173;50.430;18.926;2022-09-30T14:50:29;97869.28;;;17.64;63.27
39487;BME280;25173;50.430;18.926;2022-09-30T14:54:00;97880.94;;;17.61;62.63
39487;BME280;25173;50.430;18.926;2022-09-30T14:57:12;97879.63;;;17.50;63.22
39487;BME280;25173;50.430;18.926;2022-09-30T15:00:26;97897.63;;;17.38;63.25
39487;BME280;25173;50.430;18.926;2022-09-30T15:03:28;97899.25;;;17.22;63.04
39487;BME280;25173;50.430;18.926;2022-09-30T15:06:31;97910.72;;;16.98;63.28
39487;BME280;25173;50.430;18.926;2022-09-30T15:09:37;97924.75;;;16.71;63.76
39487;BME280;25173;50.430;18.926;2022-09-30T15:12:41;97938.75;;;16.52;63.72
39487;BME280;25173;50.430;18.926;2022-09-30T15:15:41;97943.63;;;16.24;64.54
39487;BME280;25173;50.430;18.926;2022-09-30T15:18:43;97941.66;;;16.16;64.92
39487;BME280;25173;50.430;18.926;2022-09-30T15:21:46;97939.84;;;16.12;65.04
39487;BME280;25173;50.430;18.926;2022-09-30T15:24:50;97936.38;;;15.98;65.13
39487;BME280;25173;50.430;18.926;2022-09-30T15:27:51;97932.25;;;15.78;65.53
39487;BME280;25173;50.430;18.926;2022-09-30T15:30:52;97931.47;;;15.64;65.80
39487;BME280;25173;50.430;18.926;2022-09-30T15:37:25;97930.16;;;15.39;66.43
39487;BME280;25173;50.430;18.926;2022-09-30T15:40:33;97930.28;;;15.34;66.45
39487;BME280;25173;50.430;18.926;2022-09-30T15:43:52;97930.00;;;15.22;66.68
39487;BME280;25173;50.430;18.926;2022-09-30T15:47:07;97941.09;;;15.17;67.07
39487;BME280;25173;50.430;18.926;2022-09-30T15:50:42;97941.69;;;15.13;67.30
39487;BME280;25173;50.430;18.926;2022-09-30T15:56:44;97934.72;;;15.07;67.12
39487;BME280;25173;50.430;18.926;2022-09-30T16:00:02;97939.91;;;15.09;67.49
39487;BME280;25173;50.430;18.926;2022-09-30T16:06:28;97953.06;;;15.21;67.34
39487;BME280;25173;50.430;18.926;2022-09-30T16:09:37;97954.09;;;15.25;67.37
39487;BME280;25173;50.430;18.926;2022-09-30T16:12:41;97956.91;;;15.33;67.46
39487;BME280;25173;50.430;18.926;2022-09-30T16:15:42;97962.94;;;15.44;67.44
39487;BME280;25173;50.430;18.926;2022-09-30T16:18:43;97955.63;;;15.53;67.28
39487;BME280;25173;50.430;18.926;2022-09-30T16:21:49;97953.25;;;15.60;67.30
39487;BME280;25173;50.430;18.926;2022-09-30T16:24:59;97952.00;;;15.66;67.15
39487;BME280;25173;50.430;18.926;2022-09-30T16:28:11;97952.66;;;15.63;66.85
39487;BME280;25173;50.430;18.926;2022-09-30T16:31:12;97963.56;;;15.55;67.08
39487;BME280;25173;50.430;18.926;2022-09-30T16:37:22;97975.78;;;15.35;67.30
39487;BME280;25173;50.430;18.926;2022-09-30T16:40:25;97969.69;;;15.38;67.61
39487;BME280;25173;50.430;18.926;2022-09-30T16:43:26;97963.97;;;15.48;67.50
39487;BME280;25173;50.430;18.926;2022-09-30T16:46:26;97963.31;;;15.51;67.30
39487;BME280;25173;50.430;18.926;2022-09-30T16:49:27;97972.09;;;15.53;67.32
39487;BME280;25173;50.430;18.926;2022-09-30T16:52:28;97985.69;;;15.58;67.46
39487;BME280;25173;50.430;18.926;2022-09-30T16:55:29;97975.72;;;15.62;67.52
39487;BME280;25173;50.430;18.926;2022-09-30T16:58:30;97978.34;;;15.67;67.65
39487;BME280;25173;50.430;18.926;2022-09-30T17:01:31;97972.41;;;15.74;67.45
39487;BME280;25173;50.430;18.926;2022-09-30T17:04:32;97975.22;;;15.82;67.23
39487;BME280;25173;50.430;18.926;2022-09-30T17:07:33;97976.72;;;15.88;67.20
39487;BME280;25173;50.430;18.926;2022-09-30T17:10:34;97986.44;;;15.95;67.08
39487;BME280;25173;50.430;18.926;2022-09-30T17:13:36;97981.66;;;16.00;66.94
39487;BME280;25173;50.430;18.926;2022-09-30T17:16:37;97987.81;;;16.06;66.72
39487;BME280;25173;50.430;18.926;2022-09-30T17:19:37;97988.81;;;16.10;66.68
39487;BME280;25173;50.430;18.926;2022-09-30T17:22:38;97978.94;;;16.09;66.82
39487;BME280;25173;50.430;18.926;2022-09-30T17:25:40;97980.88;;;16.08;66.68
39487;BME280;25173;50.430;18.926;2022-09-30T17:28:41;97978.47;;;16.07;66.90
39487;BME280;25173;50.430;18.926;2022-09-30T17:31:42;97979.88;;;16.04;66.70
39487;BME280;25173;50.430;18.926;2022-09-30T17:34:43;97989.91;;;16.00;66.87
39487;BME280;25173;50.430;18.926;2022-09-30T17:37:44;97991.69;;;16.05;66.80
39487;BME280;25173;50.430;18.926;2022-09-30T17:40:44;98006.41;;;16.09;66.75
39487;BME280;25173;50.430;18.926;2022-09-30T17:44:06;98013.66;;;16.05;66.64
39487;BME280;25173;50.430;18.926;2022-09-30T17:47:07;98009.44;;;15.99;66.61
39487;BME280;25173;50.430;18.926;2022-09-30T17:50:08;98010.03;;;15.96;66.75
39487;BME280;25173;50.430;18.926;2022-09-30T17:53:14;98013.81;;;16.00;66.81
39487;BME280;25173;50.430;18.926;2022-09-30T17:56:20;98011.38;;;15.98;67.03
39487;BME280;25173;50.430;18.926;2022-09-30T17:59:22;98011.69;;;15.97;67.08
39487;BME280;25173;50.430;18.926;2022-09-30T18:02:25;98012.78;;;15.96;67.12
39487;BME280;25173;50.430;18.926;2022-09-30T18:05:25;98029.91;;;15.93;67.09
39487;BME280;25173;50.430;18.926;2022-09-30T18:08:26;98032.03;;;15.96;67.14
39487;BME280;25173;50.430;18.926;2022-09-30T18:11:27;98038.03;;;15.98;67.18
39487;BME280;25173;50.430;18.926;2022-09-30T18:14:30;98035.78;;;16.00;67.08
39487;BME280;25173;50.430;18.926;2022-09-30T18:17:37;98035.28;;;15.98;67.07
39487;BME280;25173;50.430;18.926;2022-09-30T18:20:42;98039.66;;;15.99;67.16
39487;BME280;25173;50.430;18.926;2022-09-30T18:23:44;98050.63;;;15.99;67.07